sensor_id;sensor_type;location;lat;lon;timestamp;P1;durP1;ratioP1;P2;durP2;ratioP2
6133;SDS011;3098;42.678;23.364;2024-03-22T00:01:58;29.30;;;13.38;;
6133;SDS011;3098;42.678;23.364;2024-03-22T00:04:25;32.42;;;14.40;;
6133;SDS011;3098;42.678;23.364;2024-03-22T00:06:51;22.73;;;11.95;;
6133;SDS011;3098;42.678;23.364;2024-03-22T00:09:17;24.20;;;11.85;;
6133;SDS011;3098;42.678;23.364;2024-03-22T00:11:43;21.90;;;10.90;;
6133;SDS011;3098;42.678;23.364;2024-03-22T00:14:09;27.02;;;12.43;;
6133;SDS011;3098;42.678;23.364;2024-03-22T00:16:36;25.90;;;11.30;;
6133;SDS011;3098;42.678;23.364;2024-03-22T00:19:02;24.63;;;10.82;;
6133;SDS011;3098;42.678;23.364;2024-03-22T00:21:27;20.00;;;11.05;;
6133;SDS011;3098;42.678;23.364;2024-03-22T00:23:54;18.52;;;8.35;;
6133;SDS011;3098;42.678;23.364;2024-03-22T00:26:20;20.85;;;8.25;;
6133;SDS011;3098;42.678;23.364;2024-03-22T00:28:46;14.00;;;7.45;;
6133;SDS011;3098;42.678;23.364;2024-03-22T00:31:12;15.98;;;7.90;;
6133;SDS011;3098;42.678;23.364;2024-03-22T00:33:38;18.77;;;6.70;;
6133;SDS011;3098;42.678;23.364;2024-03-22T00:36:03;15.90;;;7.00;;
6133;SDS011;3098;42.678;23.364;2024-03-22T00:38:29;16.58;;;7.45;;
6133;SDS011;3098;42.678;23.364;2024-03-22T00:40:55;16.10;;;8.18;;
6133;SDS011;3098;42.678;23.364;2024-03-22T00:43:20;16.05;;;8.68;;
6133;SDS011;3098;42.678;23.364;2024-03-22T00:45:46;18.02;;;8.23;;
6133;SDS011;3098;42.678;23.364;2024-03-22T00:48:12;18.52;;;7.93;;
6133;SDS011;3098;42.678;23.364;2024-03-22T00:50:37;13.73;;;6.68;;
6133;SDS011;3098;42.678;23.364;2024-03-22T00:53:03;14.18;;;6.05;;
6133;SDS011;3098;42.678;23.364;2024-03-22T00:55:30;11.82;;;6.05;;
6133;SDS011;3098;42.678;23.364;2024-03-22T00:57:56;14.82;;;7.28;;
6133;SDS011;3098;42.678;23.364;2024-03-22T01:00:22;17.80;;;7.22;;
6133;SDS011;3098;42.678;23.364;2024-03-22T01:02:47;18.90;;;8.50;;
6133;SDS011;3098;42.678;23.364;2024-03-22T01:05:14;19.17;;;8.40;;
6133;SDS011;3098;42.678;23.364;2024-03-22T01:07:40;21.45;;;8.65;;
6133;SDS011;3098;42.678;23.364;2024-03-22T01:10:05;19.27;;;9.02;;
6133;SDS011;3098;42.678;23.364;2024-03-22T01:12:31;18.40;;;9.88;;
6133;SDS011;3098;42.678;23.364;2024-03-22T01:14:57;19.20;;;8.75;;
6133;SDS011;3098;42.678;23.364;2024-03-22T01:17:23;19.15;;;9.20;;
6133;SDS011;3098;42.678;23.364;2024-03-22T01:19:49;18.90;;;8.93;;
6133;SDS011;3098;42.678;23.364;2024-03-22T01:22:15;17.15;;;7.93;;
6133;SDS011;3098;42.678;23.364;2024-03-22T01:24:42;17.35;;;8.23;;
6133;SDS011;3098;42.678;23.364;2024-03-22T01:27:08;15.27;;;8.30;;
6133;SDS011;3098;42.678;23.364;2024-03-22T01:29:34;17.27;;;7.40;;
6133;SDS011;3098;42.678;23.364;2024-03-22T01:32:01;20.02;;;8.65;;
6133;SDS011;3098;42.678;23.364;2024-03-22T01:34:26;16.60;;;8.40;;
6133;SDS011;3098;42.678;23.364;2024-03-22T01:36:52;19.02;;;8.52;;
6133;SDS011;3098;42.678;23.364;2024-03-22T01:39:20;15.57;;;7.28;;
6133;SDS011;3098;42.678;23.364;2024-03-22T01:41:47;17.42;;;7.47;;
6133;SDS011;3098;42.678;23.364;2024-03-22T01:44:15;18.00;;;7.70;;
6133;SDS011;3098;42.678;23.364;2024-03-22T01:46:42;14.88;;;7.60;;
6133;SDS011;3098;42.678;23.364;2024-03-22T01:49:09;18.10;;;7.65;;
6133;SDS011;3098;42.678;23.364;2024-03-22T01:51:38;16.38;;;7.95;;
6133;SDS011;3098;42.678;23.364;2024-03-22T01:54:05;14.93;;;6.95;;
6133;SDS011;3098;42.678;23.364;2024-03-22T01:56:33;14.57;;;6.97;;
6133;SDS011;3098;42.678;23.364;2024-03-22T01:59:00;19.70;;;8.48;;
6133;SDS011;3098;42.678;23.364;2024-03-22T02:01:27;17.15;;;8.27;;
6133;SDS011;3098;42.678;23.364;2024-03-22T02:03:52;19.73;;;8.82;;
6133;SDS011;3098;42.678;23.364;2024-03-22T02:06:18;18.95;;;8.02;;
6133;SDS011;3098;42.678;23.364;2024-03-22T02:08:44;18.77;;;9.07;;
6133;SDS011;3098;42.678;23.364;2024-03-22T02:11:09;25.95;;;11.02;;
6133;SDS011;3098;42.678;23.364;2024-03-22T02:13:35;20.33;;;10.65;;
6133;SDS011;3098;42.678;23.364;2024-03-22T02:16:04;25.23;;;11.63;;
6133;SDS011;3098;42.678;23.364;2024-03-22T02:18:31;26.92;;;11.82;;
6133;SDS011;3098;42.678;23.364;2024-03-22T02:20:56;22.38;;;12.10;;
6133;SDS011;3098;42.678;23.364;2024-03-22T02:23:32;26.38;;;13.35;;
6133;SDS011;3098;42.678;23.364;2024-03-22T02:25:58;27.40;;;11.98;;
6133;SDS011;3098;42.678;23.364;2024-03-22T02:28:23;30.00;;;14.48;;
6133;SDS011;3098;42.678;23.364;2024-03-22T02:30:49;25.63;;;13.38;;
6133;SDS011;3098;42.678;23.364;2024-03-22T02:33:14;27.05;;;12.95;;
6133;SDS011;3098;42.678;23.364;2024-03-22T02:35:40;30.65;;;12.70;;
6133;SDS011;3098;42.678;23.364;2024-03-22T02:38:06;26.30;;;13.10;;
6133;SDS011;3098;42.678;23.364;2024-03-22T02:40:31;27.20;;;12.63;;
6133;SDS011;3098;42.678;23.364;2024-03-22T02:42:57;23.92;;;12.18;;
6133;SDS011;3098;42.678;23.364;2024-03-22T02:45:22;20.98;;;11.63;;
6133;SDS011;3098;42.678;23.364;2024-03-22T02:47:48;23.33;;;11.27;;
6133;SDS011;3098;42.678;23.364;2024-03-22T02:50:13;29.05;;;12.90;;
6133;SDS011;3098;42.678;23.364;2024-03-22T02:52:39;23.20;;;12.23;;
6133;SDS011;3098;42.678;23.364;2024-03-22T02:55:05;28.00;;;13.48;;
6133;SDS011;3098;42.678;23.364;2024-03-22T02:57:30;27.05;;;14.45;;
6133;SDS011;3098;42.678;23.364;2024-03-22T02:59:56;26.05;;;13.63;;
6133;SDS011;3098;42.678;23.364;2024-03-22T03:02:22;23.92;;;12.13;;
6133;SDS011;3098;42.678;23.364;2024-03-22T03:04:48;25.08;;;12.73;;
6133;SDS011;3098;42.678;23.364;2024-03-22T03:07:14;26.73;;;11.73;;
6133;SDS011;3098;42.678;23.364;2024-03-22T03:09:39;24.13;;;11.50;;
6133;SDS011;3098;42.678;23.364;2024-03-22T03:12:05;18.00;;;10.45;;
6133;SDS011;3098;42.678;23.364;2024-03-22T03:14:31;18.90;;;8.80;;
6133;SDS011;3098;42.678;23.364;2024-03-22T03:16:56;11.52;;;6.57;;
6133;SDS011;3098;42.678;23.364;2024-03-22T03:19:22;13.32;;;7.05;;
6133;SDS011;3098;42.678;23.364;2024-03-22T03:21:48;14.00;;;8.32;;
6133;SDS011;3098;42.678;23.364;2024-03-22T03:24:13;16.35;;;8.18;;
6133;SDS011;3098;42.678;23.364;2024-03-22T03:26:39;17.80;;;8.20;;
6133;SDS011;3098;42.678;23.364;2024-03-22T03:29:04;17.08;;;8.55;;
6133;SDS011;3098;42.678;23.364;2024-03-22T03:31:30;23.55;;;9.40;;
6133;SDS011;3098;42.678;23.364;2024-03-22T03:33:56;21.23;;;10.00;;
6133;SDS011;3098;42.678;23.364;2024-03-22T03:36:22;20.10;;;8.88;;
6133;SDS011;3098;42.678;23.364;2024-03-22T03:38:47;22.15;;;9.48;;
6133;SDS011;3098;42.678;23.364;2024-03-22T03:41:13;20.55;;;9.45;;
6133;SDS011;3098;42.678;23.364;2024-03-22T03:43:38;20.40;;;9.38;;
6133;SDS011;3098;42.678;23.364;2024-03-22T03:46:04;17.65;;;8.38;;
6133;SDS011;3098;42.678;23.364;2024-03-22T03:48:29;22.02;;;9.90;;
6133;SDS011;3098;42.678;23.364;2024-03-22T03:50:55;21.02;;;8.13;;
6133;SDS011;3098;42.678;23.364;2024-03-22T03:53:24;13.63;;;7.00;;
6133;SDS011;3098;42.678;23.364;2024-03-22T03:55:50;13.48;;;6.68;;
6133;SDS011;3098;42.678;23.364;2024-03-22T03:58:16;15.57;;;7.38;;
6133;SDS011;3098;42.678;23.364;2024-03-22T04:00:43;17.98;;;7.35;;
6133;SDS011;3098;42.678;23.364;2024-03-22T04:03:08;13.45;;;7.03;;
6133;SDS011;3098;42.678;23.364;2024-03-22T04:05:34;12.35;;;5.95;;
6133;SDS011;3098;42.678;23.364;2024-03-22T04:07:59;12.93;;;5.93;;
6133;SDS011;3098;42.678;23.364;2024-03-22T04:10:25;13.05;;;6.13;;
6133;SDS011;3098;42.678;23.364;2024-03-22T04:12:50;12.77;;;6.22;;
6133;SDS011;3098;42.678;23.364;2024-03-22T04:15:16;12.88;;;6.00;;
6133;SDS011;3098;42.678;23.364;2024-03-22T04:17:41;9.50;;;5.18;;
6133;SDS011;3098;42.678;23.364;2024-03-22T04:20:07;9.45;;;5.40;;
6133;SDS011;3098;42.678;23.364;2024-03-22T04:22:33;11.13;;;5.88;;
6133;SDS011;3098;42.678;23.364;2024-03-22T04:24:59;12.30;;;5.68;;
6133;SDS011;3098;42.678;23.364;2024-03-22T04:27:24;9.63;;;5.43;;
6133;SDS011;3098;42.678;23.364;2024-03-22T04:29:50;18.30;;;5.28;;
6133;SDS011;3098;42.678;23.364;2024-03-22T04:32:16;7.10;;;4.75;;
6133;SDS011;3098;42.678;23.364;2024-03-22T04:34:42;11.43;;;5.93;;
6133;SDS011;3098;42.678;23.364;2024-03-22T04:37:08;9.60;;;5.38;;
6133;SDS011;3098;42.678;23.364;2024-03-22T04:39:34;15.40;;;6.10;;
6133;SDS011;3098;42.678;23.364;2024-03-22T04:42:00;15.27;;;5.25;;
6133;SDS011;3098;42.678;23.364;2024-03-22T04:44:25;12.27;;;4.85;;
6133;SDS011;3098;42.678;23.364;2024-03-22T04:46:52;12.43;;;5.13;;
6133;SDS011;3098;42.678;23.364;2024-03-22T04:49:17;9.48;;;5.05;;
6133;SDS011;3098;42.678;23.364;2024-03-22T04:51:43;8.85;;;4.95;;
6133;SDS011;3098;42.678;23.364;2024-03-22T04:54:08;9.63;;;5.32;;
6133;SDS011;3098;42.678;23.364;2024-03-22T04:56:34;12.25;;;5.03;;
6133;SDS011;3098;42.678;23.364;2024-03-22T04:58:59;9.70;;;5.32;;
6133;SDS011;3098;42.678;23.364;2024-03-22T05:01:25;12.55;;;5.57;;
6133;SDS011;3098;42.678;23.364;2024-03-22T05:03:51;15.35;;;8.20;;
6133;SDS011;3098;42.678;23.364;2024-03-22T05:06:17;14.00;;;6.20;;
6133;SDS011;3098;42.678;23.364;2024-03-22T05:08:43;9.45;;;5.85;;
6133;SDS011;3098;42.678;23.364;2024-03-22T05:11:09;16.92;;;6.43;;
6133;SDS011;3098;42.678;23.364;2024-03-22T05:13:34;11.45;;;6.82;;
6133;SDS011;3098;42.678;23.364;2024-03-22T05:15:59;23.38;;;8.68;;
6133;SDS011;3098;42.678;23.364;2024-03-22T05:18:25;16.70;;;8.13;;
6133;SDS011;3098;42.678;23.364;2024-03-22T05:20:51;15.45;;;7.47;;
6133;SDS011;3098;42.678;23.364;2024-03-22T05:23:17;14.07;;;6.25;;
6133;SDS011;3098;42.678;23.364;2024-03-22T05:25:43;13.07;;;6.22;;
6133;SDS011;3098;42.678;23.364;2024-03-22T05:28:08;11.93;;;4.97;;
6133;SDS011;3098;42.678;23.364;2024-03-22T05:30:34;18.70;;;5.88;;
6133;SDS011;3098;42.678;23.364;2024-03-22T05:32:59;15.10;;;7.40;;
6133;SDS011;3098;42.678;23.364;2024-03-22T05:35:26;13.38;;;6.40;;
6133;SDS011;3098;42.678;23.364;2024-03-22T05:37:52;13.88;;;5.70;;
6133;SDS011;3098;42.678;23.364;2024-03-22T05:40:18;9.68;;;4.68;;
6133;SDS011;3098;42.678;23.364;2024-03-22T05:42:43;12.38;;;5.78;;
6133;SDS011;3098;42.678;23.364;2024-03-22T05:45:09;10.82;;;5.40;;
6133;SDS011;3098;42.678;23.364;2024-03-22T05:47:34;16.00;;;5.88;;
6133;SDS011;3098;42.678;23.364;2024-03-22T05:50:02;9.80;;;5.15;;
6133;SDS011;3098;42.678;23.364;2024-03-22T05:52:28;9.80;;;6.32;;
6133;SDS011;3098;42.678;23.364;2024-03-22T05:54:54;10.32;;;5.03;;
6133;SDS011;3098;42.678;23.364;2024-03-22T05:57:20;13.80;;;5.50;;
6133;SDS011;3098;42.678;23.364;2024-03-22T05:59:46;11.23;;;6.13;;
6133;SDS011;3098;42.678;23.364;2024-03-22T06:02:13;13.73;;;5.53;;
6133;SDS011;3098;42.678;23.364;2024-03-22T06:04:40;13.30;;;6.38;;
6133;SDS011;3098;42.678;23.364;2024-03-22T06:07:06;12.05;;;6.38;;
6133;SDS011;3098;42.678;23.364;2024-03-22T06:09:32;15.27;;;6.10;;
6133;SDS011;3098;42.678;23.364;2024-03-22T06:12:10;10.57;;;6.22;;
6133;SDS011;3098;42.678;23.364;2024-03-22T06:14:42;16.80;;;6.57;;
6133;SDS011;3098;42.678;23.364;2024-03-22T06:17:08;12.48;;;7.00;;
6133;SDS011;3098;42.678;23.364;2024-03-22T06:19:33;15.23;;;6.55;;
6133;SDS011;3098;42.678;23.364;2024-03-22T06:21:59;12.10;;;6.90;;
6133;SDS011;3098;42.678;23.364;2024-03-22T06:24:25;15.43;;;7.57;;
6133;SDS011;3098;42.678;23.364;2024-03-22T06:26:50;12.95;;;6.88;;
6133;SDS011;3098;42.678;23.364;2024-03-22T06:29:16;13.50;;;6.93;;
6133;SDS011;3098;42.678;23.364;2024-03-22T06:31:42;18.00;;;7.07;;
6133;SDS011;3098;42.678;23.364;2024-03-22T06:34:08;13.15;;;6.38;;
6133;SDS011;3098;42.678;23.364;2024-03-22T06:36:33;23.30;;;8.98;;
6133;SDS011;3098;42.678;23.364;2024-03-22T06:38:59;14.82;;;9.95;;
6133;SDS011;3098;42.678;23.364;2024-03-22T06:41:25;31.48;;;11.38;;
6133;SDS011;3098;42.678;23.364;2024-03-22T06:43:52;25.38;;;10.73;;
6133;SDS011;3098;42.678;23.364;2024-03-22T06:46:18;20.42;;;12.00;;
6133;SDS011;3098;42.678;23.364;2024-03-22T06:48:44;27.00;;;11.85;;
6133;SDS011;3098;42.678;23.364;2024-03-22T06:51:11;22.63;;;11.13;;
6133;SDS011;3098;42.678;23.364;2024-03-22T06:53:37;29.77;;;12.73;;
6133;SDS011;3098;42.678;23.364;2024-03-22T06:56:03;22.05;;;11.48;;
6133;SDS011;3098;42.678;23.364;2024-03-22T06:58:29;25.30;;;11.07;;
6133;SDS011;3098;42.678;23.364;2024-03-22T07:00:55;21.60;;;10.52;;
6133;SDS011;3098;42.678;23.364;2024-03-22T07:03:21;23.85;;;11.02;;
6133;SDS011;3098;42.678;23.364;2024-03-22T07:05:47;28.00;;;12.30;;
6133;SDS011;3098;42.678;23.364;2024-03-22T07:08:13;21.27;;;10.55;;
6133;SDS011;3098;42.678;23.364;2024-03-22T07:10:39;20.60;;;10.15;;
6133;SDS011;3098;42.678;23.364;2024-03-22T07:13:05;19.95;;;10.65;;
6133;SDS011;3098;42.678;23.364;2024-03-22T07:15:31;19.10;;;10.52;;
6133;SDS011;3098;42.678;23.364;2024-03-22T07:17:58;22.00;;;10.38;;
6133;SDS011;3098;42.678;23.364;2024-03-22T07:20:24;26.42;;;12.55;;
6133;SDS011;3098;42.678;23.364;2024-03-22T07:22:50;15.63;;;9.13;;
6133;SDS011;3098;42.678;23.364;2024-03-22T07:25:16;19.23;;;11.40;;
6133;SDS011;3098;42.678;23.364;2024-03-22T07:27:41;17.08;;;8.65;;
6133;SDS011;3098;42.678;23.364;2024-03-22T07:30:07;24.48;;;14.77;;
6133;SDS011;3098;42.678;23.364;2024-03-22T07:32:34;16.55;;;9.40;;
6133;SDS011;3098;42.678;23.364;2024-03-22T07:34:59;13.00;;;7.70;;
6133;SDS011;3098;42.678;23.364;2024-03-22T07:37:25;15.05;;;9.30;;
6133;SDS011;3098;42.678;23.364;2024-03-22T07:39:50;11.82;;;7.65;;
6133;SDS011;3098;42.678;23.364;2024-03-22T07:42:16;23.77;;;8.20;;
6133;SDS011;3098;42.678;23.364;2024-03-22T07:44:42;10.60;;;6.22;;
6133;SDS011;3098;42.678;23.364;2024-03-22T07:47:08;13.13;;;5.00;;
6133;SDS011;3098;42.678;23.364;2024-03-22T07:49:34;9.70;;;5.72;;
6133;SDS011;3098;42.678;23.364;2024-03-22T07:52:00;8.93;;;6.32;;
6133;SDS011;3098;42.678;23.364;2024-03-22T07:54:26;10.70;;;6.13;;
6133;SDS011;3098;42.678;23.364;2024-03-22T07:56:51;10.07;;;6.18;;
6133;SDS011;3098;42.678;23.364;2024-03-22T07:59:17;9.18;;;5.28;;
6133;SDS011;3098;42.678;23.364;2024-03-22T08:01:43;2.50;;;1.90;;
6133;SDS011;3098;42.678;23.364;2024-03-22T08:04:12;5.78;;;3.85;;
6133;SDS011;3098;42.678;23.364;2024-03-22T08:06:40;4.05;;;2.75;;
6133;SDS011;3098;42.678;23.364;2024-03-22T08:09:06;5.78;;;4.10;;
6133;SDS011;3098;42.678;23.364;2024-03-22T08:11:37;5.78;;;3.38;;
6133;SDS011;3098;42.678;23.364;2024-03-22T08:14:03;6.03;;;3.25;;
6133;SDS011;3098;42.678;23.364;2024-03-22T08:16:31;6.22;;;3.80;;
6133;SDS011;3098;42.678;23.364;2024-03-22T08:18:58;6.82;;;3.58;;
6133;SDS011;3098;42.678;23.364;2024-03-22T08:21:24;6.75;;;3.50;;
6133;SDS011;3098;42.678;23.364;2024-03-22T08:23:51;5.45;;;3.15;;
6133;SDS011;3098;42.678;23.364;2024-03-22T08:26:17;4.57;;;3.08;;
6133;SDS011;3098;42.678;23.364;2024-03-22T08:28:43;5.72;;;2.90;;
6133;SDS011;3098;42.678;23.364;2024-03-22T08:31:10;5.93;;;3.45;;
6133;SDS011;3098;42.678;23.364;2024-03-22T08:33:36;6.13;;;2.70;;
6133;SDS011;3098;42.678;23.364;2024-03-22T08:36:01;4.18;;;3.00;;
6133;SDS011;3098;42.678;23.364;2024-03-22T08:38:27;5.30;;;2.90;;
6133;SDS011;3098;42.678;23.364;2024-03-22T08:40:53;4.80;;;2.85;;
6133;SDS011;3098;42.678;23.364;2024-03-22T08:43:18;4.15;;;2.72;;
6133;SDS011;3098;42.678;23.364;2024-03-22T08:45:47;4.60;;;3.10;;
6133;SDS011;3098;42.678;23.364;2024-03-22T08:48:12;4.03;;;2.83;;
6133;SDS011;3098;42.678;23.364;2024-03-22T08:50:38;4.45;;;2.85;;
6133;SDS011;3098;42.678;23.364;2024-03-22T08:53:03;4.97;;;2.67;;
6133;SDS011;3098;42.678;23.364;2024-03-22T08:55:32;4.93;;;2.92;;
6133;SDS011;3098;42.678;23.364;2024-03-22T08:57:57;5.95;;;3.47;;
6133;SDS011;3098;42.678;23.364;2024-03-22T09:00:23;4.20;;;2.95;;
6133;SDS011;3098;42.678;23.364;2024-03-22T09:02:48;4.97;;;2.75;;
6133;SDS011;3098;42.678;23.364;2024-03-22T09:05:14;5.53;;;3.38;;
6133;SDS011;3098;42.678;23.364;2024-03-22T09:07:40;6.97;;;3.33;;
6133;SDS011;3098;42.678;23.364;2024-03-22T09:10:07;4.30;;;2.85;;
6133;SDS011;3098;42.678;23.364;2024-03-22T09:12:33;5.05;;;2.97;;
6133;SDS011;3098;42.678;23.364;2024-03-22T09:14:59;5.75;;;3.40;;
6133;SDS011;3098;42.678;23.364;2024-03-22T09:17:26;5.45;;;3.17;;
6133;SDS011;3098;42.678;23.364;2024-03-22T09:19:52;4.47;;;2.80;;
6133;SDS011;3098;42.678;23.364;2024-03-22T09:22:18;5.38;;;3.30;;
6133;SDS011;3098;42.678;23.364;2024-03-22T09:24:44;5.97;;;2.80;;
6133;SDS011;3098;42.678;23.364;2024-03-22T09:27:09;7.95;;;3.15;;
6133;SDS011;3098;42.678;23.364;2024-03-22T09:29:36;5.38;;;3.20;;
6133;SDS011;3098;42.678;23.364;2024-03-22T09:32:03;4.93;;;2.63;;
6133;SDS011;3098;42.678;23.364;2024-03-22T09:34:29;4.63;;;3.00;;
6133;SDS011;3098;42.678;23.364;2024-03-22T09:36:55;4.38;;;2.92;;
6133;SDS011;3098;42.678;23.364;2024-03-22T09:39:21;5.57;;;3.03;;
6133;SDS011;3098;42.678;23.364;2024-03-22T09:41:47;3.45;;;2.38;;
6133;SDS011;3098;42.678;23.364;2024-03-22T09:44:14;6.82;;;3.25;;
6133;SDS011;3098;42.678;23.364;2024-03-22T09:46:44;5.25;;;2.90;;
6133;SDS011;3098;42.678;23.364;2024-03-22T09:49:11;5.30;;;2.80;;
6133;SDS011;3098;42.678;23.364;2024-03-22T09:51:39;5.30;;;2.58;;
6133;SDS011;3098;42.678;23.364;2024-03-22T09:54:06;6.10;;;3.10;;
6133;SDS011;3098;42.678;23.364;2024-03-22T09:56:32;5.18;;;2.83;;
6133;SDS011;3098;42.678;23.364;2024-03-22T09:58:59;5.05;;;2.67;;
6133;SDS011;3098;42.678;23.364;2024-03-22T10:01:24;4.53;;;2.65;;
6133;SDS011;3098;42.678;23.364;2024-03-22T10:03:51;5.38;;;2.60;;
6133;SDS011;3098;42.678;23.364;2024-03-22T10:06:18;4.07;;;2.72;;
6133;SDS011;3098;42.678;23.364;2024-03-22T10:08:44;6.72;;;2.70;;
6133;SDS011;3098;42.678;23.364;2024-03-22T10:11:10;4.38;;;2.42;;
6133;SDS011;3098;42.678;23.364;2024-03-22T10:13:37;4.22;;;2.45;;
6133;SDS011;3098;42.678;23.364;2024-03-22T10:16:03;4.88;;;1.90;;
6133;SDS011;3098;42.678;23.364;2024-03-22T10:18:29;3.95;;;2.53;;
6133;SDS011;3098;42.678;23.364;2024-03-22T10:21:00;3.45;;;2.13;;
6133;SDS011;3098;42.678;23.364;2024-03-22T10:23:30;5.18;;;2.42;;
6133;SDS011;3098;42.678;23.364;2024-03-22T10:25:56;5.25;;;2.70;;
6133;SDS011;3098;42.678;23.364;2024-03-22T10:28:23;6.05;;;3.08;;
6133;SDS011;3098;42.678;23.364;2024-03-22T10:30:53;4.60;;;2.85;;
6133;SDS011;3098;42.678;23.364;2024-03-22T10:33:22;6.38;;;3.30;;
6133;SDS011;3098;42.678;23.364;2024-03-22T10:35:54;4.22;;;2.60;;
6133;SDS011;3098;42.678;23.364;2024-03-22T10:38:20;4.80;;;2.55;;
6133;SDS011;3098;42.678;23.364;2024-03-22T10:40:46;4.97;;;2.45;;
6133;SDS011;3098;42.678;23.364;2024-03-22T10:43:15;7.45;;;2.90;;
6133;SDS011;3098;42.678;23.364;2024-03-22T10:45:42;5.03;;;2.47;;
6133;SDS011;3098;42.678;23.364;2024-03-22T10:48:11;7.32;;;3.03;;
6133;SDS011;3098;42.678;23.364;2024-03-22T10:50:41;3.55;;;2.22;;
6133;SDS011;3098;42.678;23.364;2024-03-22T10:53:09;5.10;;;3.20;;
6133;SDS011;3098;42.678;23.364;2024-03-22T10:55:49;4.50;;;2.58;;
6133;SDS011;3098;42.678;23.364;2024-03-22T10:58:25;4.45;;;2.72;;
6133;SDS011;3098;42.678;23.364;2024-03-22T11:00:54;4.30;;;2.85;;
6133;SDS011;3098;42.678;23.364;2024-03-22T11:03:22;4.22;;;2.60;;
6133;SDS011;3098;42.678;23.364;2024-03-22T11:05:50;5.07;;;2.67;;
6133;SDS011;3098;42.678;23.364;2024-03-22T11:08:23;6.47;;;2.67;;
6133;SDS011;3098;42.678;23.364;2024-03-22T11:10:53;5.30;;;3.13;;
6133;SDS011;3098;42.678;23.364;2024-03-22T11:13:19;6.28;;;3.53;;
6133;SDS011;3098;42.678;23.364;2024-03-22T11:15:48;3.80;;;2.15;;
6133;SDS011;3098;42.678;23.364;2024-03-22T11:18:14;5.75;;;2.83;;
6133;SDS011;3098;42.678;23.364;2024-03-22T11:20:41;3.42;;;2.13;;
6133;SDS011;3098;42.678;23.364;2024-03-22T11:23:08;3.33;;;2.20;;
6133;SDS011;3098;42.678;23.364;2024-03-22T11:25:34;2.97;;;1.92;;
6133;SDS011;3098;42.678;23.364;2024-03-22T11:28:00;5.70;;;2.90;;
6133;SDS011;3098;42.678;23.364;2024-03-22T11:30:30;4.85;;;2.58;;
6133;SDS011;3098;42.678;23.364;2024-03-22T11:32:57;6.05;;;2.65;;
6133;SDS011;3098;42.678;23.364;2024-03-22T11:35:25;3.88;;;2.10;;
6133;SDS011;3098;42.678;23.364;2024-03-22T11:37:51;5.15;;;2.70;;
6133;SDS011;3098;42.678;23.364;2024-03-22T11:40:17;2.97;;;2.10;;
6133;SDS011;3098;42.678;23.364;2024-03-22T11:42:44;3.60;;;2.38;;
6133;SDS011;3098;42.678;23.364;2024-03-22T11:45:12;4.45;;;2.50;;
6133;SDS011;3098;42.678;23.364;2024-03-22T11:47:40;4.07;;;2.38;;
6133;SDS011;3098;42.678;23.364;2024-03-22T11:50:06;3.20;;;2.00;;
6133;SDS011;3098;42.678;23.364;2024-03-22T11:52:32;3.15;;;2.03;;
6133;SDS011;3098;42.678;23.364;2024-03-22T11:54:57;4.32;;;2.45;;
6133;SDS011;3098;42.678;23.364;2024-03-22T11:57:24;3.90;;;2.33;;
6133;SDS011;3098;42.678;23.364;2024-03-22T11:59:50;4.40;;;2.40;;
6133;SDS011;3098;42.678;23.364;2024-03-22T12:02:16;4.32;;;2.40;;
6133;SDS011;3098;42.678;23.364;2024-03-22T12:04:42;3.90;;;2.60;;
6133;SDS011;3098;42.678;23.364;2024-03-22T12:07:13;5.47;;;2.50;;
6133;SDS011;3098;42.678;23.364;2024-03-22T12:09:39;3.83;;;2.50;;
6133;SDS011;3098;42.678;23.364;2024-03-22T12:12:09;4.80;;;2.63;;
6133;SDS011;3098;42.678;23.364;2024-03-22T12:14:36;6.50;;;3.05;;
6133;SDS011;3098;42.678;23.364;2024-03-22T12:17:02;4.25;;;2.67;;
6133;SDS011;3098;42.678;23.364;2024-03-22T12:19:28;3.75;;;2.55;;
6133;SDS011;3098;42.678;23.364;2024-03-22T12:21:54;3.63;;;2.42;;
6133;SDS011;3098;42.678;23.364;2024-03-22T12:24:20;5.18;;;2.70;;
6133;SDS011;3098;42.678;23.364;2024-03-22T12:26:46;4.22;;;2.33;;
6133;SDS011;3098;42.678;23.364;2024-03-22T12:29:12;6.45;;;2.55;;
6133;SDS011;3098;42.678;23.364;2024-03-22T12:31:39;4.47;;;2.40;;
6133;SDS011;3098;42.678;23.364;2024-03-22T12:34:05;4.13;;;2.70;;
6133;SDS011;3098;42.678;23.364;2024-03-22T12:36:30;3.25;;;2.28;;
6133;SDS011;3098;42.678;23.364;2024-03-22T12:38:56;4.07;;;2.20;;
6133;SDS011;3098;42.678;23.364;2024-03-22T12:41:22;4.47;;;2.60;;
6133;SDS011;3098;42.678;23.364;2024-03-22T12:43:48;3.97;;;2.08;;
6133;SDS011;3098;42.678;23.364;2024-03-22T12:46:14;3.97;;;2.17;;
6133;SDS011;3098;42.678;23.364;2024-03-22T12:48:40;4.68;;;2.28;;
6133;SDS011;3098;42.678;23.364;2024-03-22T12:51:06;8.55;;;5.65;;
6133;SDS011;3098;42.678;23.364;2024-03-22T12:53:32;3.00;;;2.30;;
6133;SDS011;3098;42.678;23.364;2024-03-22T12:55:57;6.25;;;2.20;;
6133;SDS011;3098;42.678;23.364;2024-03-22T12:58:22;4.60;;;2.60;;
6133;SDS011;3098;42.678;23.364;2024-03-22T13:00:48;4.25;;;2.30;;
6133;SDS011;3098;42.678;23.364;2024-03-22T13:03:14;2.28;;;1.67;;
6133;SDS011;3098;42.678;23.364;2024-03-22T13:05:41;3.80;;;2.30;;
6133;SDS011;3098;42.678;23.364;2024-03-22T13:08:07;3.78;;;2.17;;
6133;SDS011;3098;42.678;23.364;2024-03-22T13:10:33;6.93;;;2.78;;
6133;SDS011;3098;42.678;23.364;2024-03-22T13:12:58;4.53;;;2.08;;
6133;SDS011;3098;42.678;23.364;2024-03-22T13:15:25;3.40;;;2.05;;
6133;SDS011;3098;42.678;23.364;2024-03-22T13:17:50;3.13;;;1.70;;
6133;SDS011;3098;42.678;23.364;2024-03-22T13:20:18;6.30;;;2.03;;
6133;SDS011;3098;42.678;23.364;2024-03-22T13:22:44;3.72;;;2.00;;
6133;SDS011;3098;42.678;23.364;2024-03-22T13:25:10;4.53;;;1.90;;
6133;SDS011;3098;42.678;23.364;2024-03-22T13:27:36;7.82;;;2.40;;
6133;SDS011;3098;42.678;23.364;2024-03-22T13:30:06;3.88;;;2.47;;
6133;SDS011;3098;42.678;23.364;2024-03-22T13:32:36;5.72;;;2.20;;
6133;SDS011;3098;42.678;23.364;2024-03-22T13:35:02;6.93;;;1.98;;
6133;SDS011;3098;42.678;23.364;2024-03-22T13:37:29;6.80;;;2.30;;
6133;SDS011;3098;42.678;23.364;2024-03-22T13:39:54;3.53;;;2.13;;
6133;SDS011;3098;42.678;23.364;2024-03-22T13:42:19;4.40;;;2.08;;
6133;SDS011;3098;42.678;23.364;2024-03-22T13:44:45;3.13;;;1.80;;
6133;SDS011;3098;42.678;23.364;2024-03-22T13:47:11;4.72;;;2.22;;
6133;SDS011;3098;42.678;23.364;2024-03-22T13:49:37;4.20;;;2.28;;
6133;SDS011;3098;42.678;23.364;2024-03-22T13:52:09;6.57;;;2.30;;
6133;SDS011;3098;42.678;23.364;2024-03-22T13:54:35;5.28;;;2.50;;
6133;SDS011;3098;42.678;23.364;2024-03-22T13:57:01;4.45;;;2.20;;
6133;SDS011;3098;42.678;23.364;2024-03-22T13:59:30;3.05;;;2.40;;
6133;SDS011;3098;42.678;23.364;2024-03-22T14:01:56;4.82;;;2.17;;
6133;SDS011;3098;42.678;23.364;2024-03-22T14:04:23;5.95;;;2.10;;
6133;SDS011;3098;42.678;23.364;2024-03-22T14:06:49;5.57;;;2.17;;
6133;SDS011;3098;42.678;23.364;2024-03-22T14:09:14;3.33;;;2.03;;
6133;SDS011;3098;42.678;23.364;2024-03-22T14:11:40;3.20;;;2.25;;
6133;SDS011;3098;42.678;23.364;2024-03-22T14:14:10;5.68;;;1.88;;
6133;SDS011;3098;42.678;23.364;2024-03-22T14:16:39;2.92;;;1.95;;
6133;SDS011;3098;42.678;23.364;2024-03-22T14:19:06;3.63;;;1.95;;
6133;SDS011;3098;42.678;23.364;2024-03-22T14:21:33;3.45;;;2.28;;
6133;SDS011;3098;42.678;23.364;2024-03-22T14:23:59;4.95;;;2.85;;
6133;SDS011;3098;42.678;23.364;2024-03-22T14:26:25;5.90;;;2.17;;
6133;SDS011;3098;42.678;23.364;2024-03-22T14:28:51;3.28;;;2.33;;
6133;SDS011;3098;42.678;23.364;2024-03-22T14:31:18;6.32;;;3.03;;
6133;SDS011;3098;42.678;23.364;2024-03-22T14:33:44;4.30;;;2.33;;
6133;SDS011;3098;42.678;23.364;2024-03-22T14:36:10;3.05;;;2.05;;
6133;SDS011;3098;42.678;23.364;2024-03-22T14:38:37;4.60;;;2.33;;
6133;SDS011;3098;42.678;23.364;2024-03-22T14:41:03;7.40;;;2.50;;
6133;SDS011;3098;42.678;23.364;2024-03-22T14:43:28;4.50;;;2.67;;
6133;SDS011;3098;42.678;23.364;2024-03-22T14:45:56;4.38;;;2.20;;
6133;SDS011;3098;42.678;23.364;2024-03-22T14:48:22;6.35;;;2.50;;